sensor_id;sensor_type;location;lat;lon;timestamp;P1;durP1;ratioP1;P2;durP2;ratioP2
21266;SDS011;10791;53.108;18.326;2023-03-30T00:03:00;26.63;;;12.20;;
21266;SDS011;10791;53.108;18.326;2023-03-30T00:08:06;25.67;;;13.50;;
21266;SDS011;10791;53.108;18.326;2023-03-30T00:13:10;22.57;;;12.10;;
21266;SDS011;10791;53.108;18.326;2023-03-30T00:18:14;23.20;;;12.20;;
21266;SDS011;10791;53.108;18.326;2023-03-30T00:23:18;20.87;;;11.73;;
21266;SDS011;10791;53.108;18.326;2023-03-30T00:28:21;24.07;;;12.77;;
21266;SDS011;10791;53.108;18.326;2023-03-30T00:33:26;23.00;;;12.17;;
21266;SDS011;10791;53.108;18.326;2023-03-30T00:38:47;23.47;;;12.13;;
21266;SDS011;10791;53.108;18.326;2023-03-30T00:45:01;25.03;;;12.73;;
21266;SDS011;10791;53.108;18.326;2023-03-30T00:49:35;32.97;;;13.93;;
21266;SDS011;10791;53.108;18.326;2023-03-30T00:54:38;28.20;;;13.77;;
21266;SDS011;10791;53.108;18.326;2023-03-30T00:59:42;24.23;;;13.70;;
21266;SDS011;10791;53.108;18.326;2023-03-30T01:04:46;24.63;;;13.67;;
21266;SDS011;10791;53.108;18.326;2023-03-30T01:09:52;27.27;;;13.47;;
21266;SDS011;10791;53.108;18.326;2023-03-30T01:14:56;25.73;;;12.97;;
21266;SDS011;10791;53.108;18.326;2023-03-30T01:30:53;23.27;;;13.33;;
21266;SDS011;10791;53.108;18.326;2023-03-30T01:47:23;28.07;;;14.03;;
21266;SDS011;10791;53.108;18.326;2023-03-30T01:52:37;30.77;;;16.10;;
21266;SDS011;10791;53.108;18.326;2023-03-30T02:03:30;33.40;;;15.20;;
21266;SDS011;10791;53.108;18.326;2023-03-30T02:08:35;27.00;;;14.00;;
21266;SDS011;10791;53.108;18.326;2023-03-30T02:13:40;28.93;;;14.47;;
21266;SDS011;10791;53.108;18.326;2023-03-30T02:18:45;24.40;;;13.87;;
21266;SDS011;10791;53.108;18.326;2023-03-30T02:23:48;25.07;;;14.43;;
21266;SDS011;10791;53.108;18.326;2023-03-30T02:28:55;26.23;;;13.40;;
21266;SDS011;10791;53.108;18.326;2023-03-30T02:44:52;29.87;;;15.40;;
21266;SDS011;10791;53.108;18.326;2023-03-30T02:50:17;25.53;;;13.23;;
21266;SDS011;10791;53.108;18.326;2023-03-30T02:55:32;28.40;;;14.47;;
21266;SDS011;10791;53.108;18.326;2023-03-30T03:00:51;30.00;;;14.97;;
21266;SDS011;10791;53.108;18.326;2023-03-30T03:06:00;31.80;;;15.47;;
21266;SDS011;10791;53.108;18.326;2023-03-30T03:11:06;29.53;;;15.33;;
21266;SDS011;10791;53.108;18.326;2023-03-30T03:16:10;26.10;;;14.40;;
21266;SDS011;10791;53.108;18.326;2023-03-30T03:21:14;39.00;;;19.00;;
21266;SDS011;10791;53.108;18.326;2023-03-30T03:26:17;25.67;;;14.13;;
21266;SDS011;10791;53.108;18.326;2023-03-30T03:31:21;22.27;;;13.20;;
21266;SDS011;10791;53.108;18.326;2023-03-30T03:36:25;28.23;;;14.70;;
21266;SDS011;10791;53.108;18.326;2023-03-30T03:41:29;28.87;;;15.23;;
21266;SDS011;10791;53.108;18.326;2023-03-30T03:46:32;27.83;;;14.93;;
21266;SDS011;10791;53.108;18.326;2023-03-30T03:51:36;26.73;;;14.20;;
21266;SDS011;10791;53.108;18.326;2023-03-30T03:56:40;25.10;;;14.33;;
21266;SDS011;10791;53.108;18.326;2023-03-30T04:01:43;27.53;;;14.40;;
21266;SDS011;10791;53.108;18.326;2023-03-30T04:06:47;32.30;;;15.67;;
21266;SDS011;10791;53.108;18.326;2023-03-30T04:11:50;32.17;;;16.73;;
21266;SDS011;10791;53.108;18.326;2023-03-30T04:16:54;22.53;;;14.13;;
21266;SDS011;10791;53.108;18.326;2023-03-30T04:21:59;34.40;;;15.67;;
21266;SDS011;10791;53.108;18.326;2023-03-30T04:27:02;29.20;;;15.63;;
21266;SDS011;10791;53.108;18.326;2023-03-30T04:32:06;38.60;;;19.90;;
21266;SDS011;10791;53.108;18.326;2023-03-30T04:37:09;32.90;;;17.57;;
21266;SDS011;10791;53.108;18.326;2023-03-30T04:42:12;26.70;;;15.97;;
21266;SDS011;10791;53.108;18.326;2023-03-30T04:47:17;27.00;;;14.20;;
21266;SDS011;10791;53.108;18.326;2023-03-30T04:52:20;23.97;;;14.00;;
21266;SDS011;10791;53.108;18.326;2023-03-30T04:57:23;27.80;;;14.03;;
21266;SDS011;10791;53.108;18.326;2023-03-30T05:02:27;29.20;;;14.57;;
21266;SDS011;10791;53.108;18.326;2023-03-30T05:07:30;23.53;;;13.63;;
21266;SDS011;10791;53.108;18.326;2023-03-30T05:12:33;30.40;;;15.37;;
21266;SDS011;10791;53.108;18.326;2023-03-30T05:17:37;30.77;;;15.30;;
21266;SDS011;10791;53.108;18.326;2023-03-30T05:22:41;26.27;;;14.07;;
21266;SDS011;10791;53.108;18.326;2023-03-30T05:27:44;28.67;;;15.20;;
21266;SDS011;10791;53.108;18.326;2023-03-30T05:32:48;25.83;;;14.70;;
21266;SDS011;10791;53.108;18.326;2023-03-30T05:37:51;26.03;;;14.30;;
21266;SDS011;10791;53.108;18.326;2023-03-30T05:42:56;25.93;;;14.47;;
21266;SDS011;10791;53.108;18.326;2023-03-30T05:48:00;26.57;;;15.37;;
21266;SDS011;10791;53.108;18.326;2023-03-30T05:53:03;25.57;;;14.63;;
21266;SDS011;10791;53.108;18.326;2023-03-30T05:58:07;26.93;;;16.73;;
21266;SDS011;10791;53.108;18.326;2023-03-30T06:03:10;35.30;;;17.17;;
21266;SDS011;10791;53.108;18.326;2023-03-30T06:08:14;54.27;;;29.00;;
21266;SDS011;10791;53.108;18.326;2023-03-30T06:13:18;53.57;;;24.10;;
21266;SDS011;10791;53.108;18.326;2023-03-30T06:18:21;29.07;;;16.17;;
21266;SDS011;10791;53.108;18.326;2023-03-30T06:23:25;27.80;;;16.73;;
21266;SDS011;10791;53.108;18.326;2023-03-30T06:28:28;25.33;;;15.50;;
21266;SDS011;10791;53.108;18.326;2023-03-30T06:33:32;29.83;;;16.40;;
21266;SDS011;10791;53.108;18.326;2023-03-30T06:38:35;27.37;;;15.70;;
21266;SDS011;10791;53.108;18.326;2023-03-30T06:43:39;28.47;;;16.37;;
21266;SDS011;10791;53.108;18.326;2023-03-30T06:48:43;28.57;;;15.53;;
21266;SDS011;10791;53.108;18.326;2023-03-30T06:53:46;27.30;;;16.83;;
21266;SDS011;10791;53.108;18.326;2023-03-30T06:58:50;26.73;;;15.97;;
21266;SDS011;10791;53.108;18.326;2023-03-30T07:03:54;30.47;;;16.57;;
21266;SDS011;10791;53.108;18.326;2023-03-30T07:08:58;28.93;;;17.33;;
21266;SDS011;10791;53.108;18.326;2023-03-30T07:14:01;27.10;;;16.20;;
21266;SDS011;10791;53.108;18.326;2023-03-30T07:19:07;30.27;;;16.27;;
21266;SDS011;10791;53.108;18.326;2023-03-30T07:24:10;27.90;;;16.27;;
21266;SDS011;10791;53.108;18.326;2023-03-30T07:29:14;27.23;;;16.00;;
21266;SDS011;10791;53.108;18.326;2023-03-30T07:34:17;27.27;;;15.43;;
21266;SDS011;10791;53.108;18.326;2023-03-30T07:39:21;29.40;;;16.60;;
21266;SDS011;10791;53.108;18.326;2023-03-30T07:44:24;29.30;;;15.60;;
21266;SDS011;10791;53.108;18.326;2023-03-30T07:49:30;28.37;;;17.03;;
21266;SDS011;10791;53.108;18.326;2023-03-30T07:54:37;25.30;;;16.17;;
21266;SDS011;10791;53.108;18.326;2023-03-30T07:59:40;28.67;;;16.70;;
21266;SDS011;10791;53.108;18.326;2023-03-30T08:04:44;24.03;;;15.80;;
21266;SDS011;10791;53.108;18.326;2023-03-30T08:09:48;29.03;;;16.83;;
21266;SDS011;10791;53.108;18.326;2023-03-30T08:14:51;29.90;;;17.20;;
21266;SDS011;10791;53.108;18.326;2023-03-30T08:19:57;28.10;;;16.17;;
21266;SDS011;10791;53.108;18.326;2023-03-30T08:25:01;25.03;;;16.27;;
21266;SDS011;10791;53.108;18.326;2023-03-30T08:30:05;22.77;;;15.53;;
21266;SDS011;10791;53.108;18.326;2023-03-30T08:35:09;27.90;;;16.97;;
21266;SDS011;10791;53.108;18.326;2023-03-30T08:40:13;25.20;;;15.80;;
21266;SDS011;10791;53.108;18.326;2023-03-30T08:45:20;28.00;;;17.43;;
21266;SDS011;10791;53.108;18.326;2023-03-30T09:06:13;26.13;;;16.90;;
21266;SDS011;10791;53.108;18.326;2023-03-30T09:11:32;27.90;;;17.27;;
21266;SDS011;10791;53.108;18.326;2023-03-30T09:16:41;25.07;;;16.43;;
21266;SDS011;10791;53.108;18.326;2023-03-30T09:21:53;25.37;;;15.87;;
21266;SDS011;10791;53.108;18.326;2023-03-30T09:27:08;19.80;;;15.13;;
21266;SDS011;10791;53.108;18.326;2023-03-30T09:37:36;26.77;;;15.63;;
21266;SDS011;10791;53.108;18.326;2023-03-30T09:42:45;23.53;;;16.73;;
21266;SDS011;10791;53.108;18.326;2023-03-30T09:47:55;21.20;;;14.50;;
21266;SDS011;10791;53.108;18.326;2023-03-30T09:53:02;24.70;;;15.27;;
21266;SDS011;10791;53.108;18.326;2023-03-30T09:58:25;20.57;;;14.37;;
21266;SDS011;10791;53.108;18.326;2023-03-30T10:03:30;20.43;;;14.23;;
21266;SDS011;10791;53.108;18.326;2023-03-30T10:08:36;23.10;;;15.30;;
21266;SDS011;10791;53.108;18.326;2023-03-30T10:13:43;21.10;;;14.60;;
21266;SDS011;10791;53.108;18.326;2023-03-30T10:18:48;20.83;;;14.63;;
21266;SDS011;10791;53.108;18.326;2023-03-30T10:24:03;22.43;;;14.40;;
21266;SDS011;10791;53.108;18.326;2023-03-30T10:29:27;21.20;;;14.93;;
21266;SDS011;10791;53.108;18.326;2023-03-30T10:39:53;25.70;;;16.37;;
21266;SDS011;10791;53.108;18.326;2023-03-30T10:45:00;21.97;;;15.43;;
21266;SDS011;10791;53.108;18.326;2023-03-30T10:50:26;22.70;;;15.43;;
21266;SDS011;10791;53.108;18.326;2023-03-30T10:55:34;25.03;;;15.83;;
21266;SDS011;10791;53.108;18.326;2023-03-30T11:06:45;17.30;;;13.10;;
21266;SDS011;10791;53.108;18.326;2023-03-30T11:11:50;17.30;;;11.63;;
21266;SDS011;10791;53.108;18.326;2023-03-30T11:17:00;20.53;;;12.70;;
21266;SDS011;10791;53.108;18.326;2023-03-30T11:22:15;18.50;;;12.93;;
21266;SDS011;10791;53.108;18.326;2023-03-30T11:27:38;20.00;;;13.23;;
21266;SDS011;10791;53.108;18.326;2023-03-30T11:33:00;16.90;;;12.10;;
21266;SDS011;10791;53.108;18.326;2023-03-30T11:43:16;17.17;;;10.80;;
21266;SDS011;10791;53.108;18.326;2023-03-30T11:59:05;15.40;;;11.40;;
21266;SDS011;10791;53.108;18.326;2023-03-30T12:04:21;19.20;;;11.57;;
21266;SDS011;10791;53.108;18.326;2023-03-30T12:09:33;18.47;;;11.73;;
21266;SDS011;10791;53.108;18.326;2023-03-30T12:15:08;16.40;;;11.07;;
21266;SDS011;10791;53.108;18.326;2023-03-30T12:20:38;17.70;;;11.73;;
21266;SDS011;10791;53.108;18.326;2023-03-30T12:31:09;17.90;;;12.90;;
21266;SDS011;10791;53.108;18.326;2023-03-30T12:41:48;17.70;;;11.63;;
21266;SDS011;10791;53.108;18.326;2023-03-30T12:52:26;15.47;;;10.30;;
21266;SDS011;10791;53.108;18.326;2023-03-30T13:02:56;15.83;;;10.83;;
21266;SDS011;10791;53.108;18.326;2023-03-30T13:08:15;15.20;;;10.40;;
21266;SDS011;10791;53.108;18.326;2023-03-30T13:18:53;17.27;;;10.93;;
21266;SDS011;10791;53.108;18.326;2023-03-30T13:24:02;14.60;;;10.47;;
21266;SDS011;10791;53.108;18.326;2023-03-30T13:29:24;18.03;;;10.80;;
21266;SDS011;10791;53.108;18.326;2023-03-30T13:34:53;13.93;;;10.10;;
21266;SDS011;10791;53.108;18.326;2023-03-30T13:46:31;17.90;;;11.90;;
21266;SDS011;10791;53.108;18.326;2023-03-30T13:51:19;18.90;;;12.33;;
21266;SDS011;10791;53.108;18.326;2023-03-30T13:56:37;21.30;;;14.07;;
21266;SDS011;10791;53.108;18.326;2023-03-30T14:01:48;19.97;;;12.47;;
21266;SDS011;10791;53.108;18.326;2023-03-30T14:06:56;20.00;;;12.63;;
21266;SDS011;10791;53.108;18.326;2023-03-30T14:12:00;20.17;;;12.33;;
21266;SDS011;10791;53.108;18.326;2023-03-30T14:17:27;18.10;;;12.53;;
21266;SDS011;10791;53.108;18.326;2023-03-30T14:22:29;20.47;;;12.37;;
21266;SDS011;10791;53.108;18.326;2023-03-30T14:27:37;18.17;;;12.07;;
21266;SDS011;10791;53.108;18.326;2023-03-30T14:32:41;18.30;;;12.23;;
21266;SDS011;10791;53.108;18.326;2023-03-30T14:37:45;19.20;;;13.07;;
21266;SDS011;10791;53.108;18.326;2023-03-30T14:42:53;17.37;;;12.63;;
21266;SDS011;10791;53.108;18.326;2023-03-30T14:47:57;20.77;;;13.63;;
21266;SDS011;10791;53.108;18.326;2023-03-30T14:53:00;18.43;;;11.70;;
21266;SDS011;10791;53.108;18.326;2023-03-30T14:58:04;18.37;;;12.00;;
21266;SDS011;10791;53.108;18.326;2023-03-30T15:03:08;22.30;;;11.80;;
21266;SDS011;10791;53.108;18.326;2023-03-30T15:08:43;30.47;;;15.77;;
21266;SDS011;10791;53.108;18.326;2023-03-30T15:13:50;20.63;;;12.83;;
21266;SDS011;10791;53.108;18.326;2023-03-30T15:18:58;18.70;;;12.43;;
21266;SDS011;10791;53.108;18.326;2023-03-30T15:24:08;19.20;;;11.50;;
21266;SDS011;10791;53.108;18.326;2023-03-30T15:29:18;17.93;;;11.90;;
21266;SDS011;10791;53.108;18.326;2023-03-30T15:34:26;16.90;;;11.83;;
21266;SDS011;10791;53.108;18.326;2023-03-30T15:39:30;18.77;;;11.80;;
21266;SDS011;10791;53.108;18.326;2023-03-30T15:44:38;20.70;;;11.63;;
21266;SDS011;10791;53.108;18.326;2023-03-30T15:49:45;23.17;;;13.20;;
21266;SDS011;10791;53.108;18.326;2023-03-30T15:54:52;19.90;;;13.23;;
21266;SDS011;10791;53.108;18.326;2023-03-30T15:59:57;20.63;;;12.70;;
21266;SDS011;10791;53.108;18.326;2023-03-30T16:05:04;17.37;;;12.17;;
21266;SDS011;10791;53.108;18.326;2023-03-30T16:10:12;46.40;;;28.20;;
21266;SDS011;10791;53.108;18.326;2023-03-30T16:15:19;68.30;;;39.63;;
21266;SDS011;10791;53.108;18.326;2023-03-30T16:20:25;24.83;;;15.00;;
21266;SDS011;10791;53.108;18.326;2023-03-30T16:25:31;19.90;;;13.10;;
21266;SDS011;10791;53.108;18.326;2023-03-30T16:30:46;43.63;;;27.77;;
21266;SDS011;10791;53.108;18.326;2023-03-30T16:35:52;26.67;;;17.23;;
21266;SDS011;10791;53.108;18.326;2023-03-30T16:40:57;22.77;;;12.47;;
21266;SDS011;10791;53.108;18.326;2023-03-30T16:46:03;22.60;;;13.57;;
21266;SDS011;10791;53.108;18.326;2023-03-30T16:51:08;22.10;;;14.17;;
21266;SDS011;10791;53.108;18.326;2023-03-30T16:56:15;28.63;;;16.07;;
21266;SDS011;10791;53.108;18.326;2023-03-30T17:01:19;25.27;;;15.27;;
21266;SDS011;10791;53.108;18.326;2023-03-30T17:06:24;21.57;;;14.37;;
21266;SDS011;10791;53.108;18.326;2023-03-30T17:11:29;25.17;;;14.57;;
21266;SDS011;10791;53.108;18.326;2023-03-30T17:16:33;47.80;;;29.10;;
21266;SDS011;10791;53.108;18.326;2023-03-30T17:21:38;45.83;;;28.93;;
21266;SDS011;10791;53.108;18.326;2023-03-30T17:26:46;52.60;;;32.20;;
21266;SDS011;10791;53.108;18.326;2023-03-30T17:31:51;47.93;;;28.17;;
21266;SDS011;10791;53.108;18.326;2023-03-30T17:36:55;54.03;;;30.97;;
21266;SDS011;10791;53.108;18.326;2023-03-30T17:42:00;45.53;;;27.20;;
21266;SDS011;10791;53.108;18.326;2023-03-30T17:47:06;53.73;;;30.77;;
21266;SDS011;10791;53.108;18.326;2023-03-30T17:52:13;52.37;;;30.67;;
21266;SDS011;10791;53.108;18.326;2023-03-30T17:57:17;46.77;;;27.80;;
21266;SDS011;10791;53.108;18.326;2023-03-30T18:02:24;49.57;;;30.73;;
21266;SDS011;10791;53.108;18.326;2023-03-30T18:07:29;31.03;;;21.50;;
21266;SDS011;10791;53.108;18.326;2023-03-30T18:12:35;36.20;;;21.77;;
21266;SDS011;10791;53.108;18.326;2023-03-30T18:17:46;34.10;;;24.10;;
21266;SDS011;10791;53.108;18.326;2023-03-30T18:22:51;42.00;;;28.47;;
21266;SDS011;10791;53.108;18.326;2023-03-30T18:27:56;44.67;;;27.50;;
21266;SDS011;10791;53.108;18.326;2023-03-30T18:33:01;40.93;;;26.67;;
21266;SDS011;10791;53.108;18.326;2023-03-30T18:38:09;37.40;;;25.50;;
21266;SDS011;10791;53.108;18.326;2023-03-30T18:43:18;40.13;;;24.77;;
21266;SDS011;10791;53.108;18.326;2023-03-30T18:48:25;48.70;;;27.10;;
21266;SDS011;10791;53.108;18.326;2023-03-30T18:53:31;41.80;;;24.03;;
21266;SDS011;10791;53.108;18.326;2023-03-30T18:58:36;44.10;;;26.47;;
21266;SDS011;10791;53.108;18.326;2023-03-30T19:03:45;42.80;;;28.77;;
21266;SDS011;10791;53.108;18.326;2023-03-30T19:08:50;57.27;;;33.73;;
21266;SDS011;10791;53.108;18.326;2023-03-30T19:13:56;61.90;;;38.27;;
21266;SDS011;10791;53.108;18.326;2023-03-30T19:19:05;45.70;;;29.23;;
21266;SDS011;10791;53.108;18.326;2023-03-30T19:24:15;41.77;;;27.43;;
21266;SDS011;10791;53.108;18.326;2023-03-30T19:29:22;54.70;;;32.60;;
21266;SDS011;10791;53.108;18.326;2023-03-30T19:34:27;43.67;;;26.10;;
21266;SDS011;10791;53.108;18.326;2023-03-30T19:39:33;33.80;;;22.83;;
21266;SDS011;10791;53.108;18.326;2023-03-30T19:44:42;32.30;;;20.80;;
21266;SDS011;10791;53.108;18.326;2023-03-30T19:49:47;30.60;;;19.93;;
21266;SDS011;10791;53.108;18.326;2023-03-30T19:54:51;26.67;;;17.87;;
21266;SDS011;10791;53.108;18.326;2023-03-30T19:59:56;21.93;;;14.37;;
21266;SDS011;10791;53.108;18.326;2023-03-30T20:05:04;20.10;;;11.77;;
21266;SDS011;10791;53.108;18.326;2023-03-30T20:10:12;12.57;;;7.70;;
21266;SDS011;10791;53.108;18.326;2023-03-30T20:15:22;10.40;;;6.37;;
21266;SDS011;10791;53.108;18.326;2023-03-30T20:20:28;7.53;;;5.37;;
21266;SDS011;10791;53.108;18.326;2023-03-30T20:25:33;7.13;;;4.57;;
21266;SDS011;10791;53.108;18.326;2023-03-30T20:30:37;6.90;;;4.23;;
21266;SDS011;10791;53.108;18.326;2023-03-30T20:35:41;8.87;;;4.33;;
21266;SDS011;10791;53.108;18.326;2023-03-30T20:40:58;6.90;;;3.97;;
21266;SDS011;10791;53.108;18.326;2023-03-30T20:46:05;5.93;;;3.13;;
21266;SDS011;10791;53.108;18.326;2023-03-30T20:51:12;5.37;;;3.30;;
21266;SDS011;10791;53.108;18.326;2023-03-30T20:56:16;4.73;;;2.90;;
21266;SDS011;10791;53.108;18.326;2023-03-30T21:01:21;6.73;;;3.50;;
21266;SDS011;10791;53.108;18.326;2023-03-30T21:06:29;9.93;;;4.30;;
21266;SDS011;10791;53.108;18.326;2023-03-30T21:11:34;7.63;;;4.00;;
21266;SDS011;10791;53.108;18.326;2023-03-30T21:16:40;6.63;;;4.47;;
21266;SDS011;10791;53.108;18.326;2023-03-30T21:21:43;7.67;;;4.20;;
21266;SDS011;10791;53.108;18.326;2023-03-30T21:26:46;5.87;;;3.63;;
21266;SDS011;10791;53.108;18.326;2023-03-30T21:31:51;7.00;;;4.03;;
21266;SDS011;10791;53.108;18.326;2023-03-30T21:36:55;6.03;;;3.80;;
21266;SDS011;10791;53.108;18.326;2023-03-30T21:41:59;7.53;;;3.87;;
21266;SDS011;10791;53.108;18.326;2023-03-30T21:47:02;7.50;;;4.20;;
21266;SDS011;10791;53.108;18.326;2023-03-30T21:52:06;6.47;;;3.53;;
21266;SDS011;10791;53.108;18.326;2023-03-30T21:57:09;6.47;;;4.23;;
21266;SDS011;10791;53.108;18.326;2023-03-30T22:02:13;5.93;;;3.93;;
21266;SDS011;10791;53.108;18.326;2023-03-30T22:07:17;6.03;;;3.77;;
21266;SDS011;10791;53.108;18.326;2023-03-30T22:12:20;5.47;;;3.80;;
21266;SDS011;10791;53.108;18.326;2023-03-30T22:17:23;7.93;;;4.07;;
21266;SDS011;10791;53.108;18.326;2023-03-30T22:22:36;5.87;;;4.10;;
21266;SDS011;10791;53.108;18.326;2023-03-30T22:27:41;6.60;;;4.37;;
21266;SDS011;10791;53.108;18.326;2023-03-30T22:32:46;7.27;;;4.67;;
21266;SDS011;10791;53.108;18.326;2023-03-30T22:37:49;7.07;;;5.47;;
21266;SDS011;10791;53.108;18.326;2023-03-30T22:42:53;8.17;;;6.33;;
21266;SDS011;10791;53.108;18.326;2023-03-30T22:47:56;10.33;;;7.33;;
21266;SDS011;10791;53.108;18.326;2023-03-30T22:53:00;12.33;;;8.67;;
21266;SDS011;10791;53.108;18.326;2023-03-30T22:58:04;13.23;;;9.30;;
21266;SDS011;10791;53.108;18.326;2023-03-30T23:03:07;15.37;;;10.20;;
21266;SDS011;10791;53.108;18.326;2023-03-30T23:08:11;12.53;;;9.60;;
21266;SDS011;10791;53.108;18.326;2023-03-30T23:13:14;13.17;;;9.87;;
21266;SDS011;10791;53.108;18.326;2023-03-30T23:18:17;15.30;;;10.60;;
21266;SDS011;10791;53.108;18.326;2023-03-30T23:23:21;13.10;;;10.03;;
21266;SDS011;10791;53.108;18.326;2023-03-30T23:28:24;14.00;;;10.37;;
21266;SDS011;10791;53.108;18.326;2023-03-30T23:33:27;14.53;;;11.60;;
21266;SDS011;10791;53.108;18.326;2023-03-30T23:38:30;15.93;;;11.27;;
21266;SDS011;10791;53.108;18.326;2023-03-30T23:43:34;18.30;;;12.40;;
21266;SDS011;10791;53.108;18.326;2023-03-30T23:48:37;15.43;;;11.97;;
21266;SDS011;10791;53.108;18.326;2023-03-30T23:53:41;15.37;;;11.23;;
21266;SDS011;10791;53.108;18.326;2023-03-30T23:58:45;14.57;;;11.00;;
